createdAt,value
2023-01-10T00:01:04.248Z,7.60
2023-01-10T00:04:08.346Z,7.65
2023-01-10T00:07:12.359Z,7.66
2023-01-10T00:10:16.530Z,7.66
2023-01-10T00:13:20.271Z,7.50
2023-01-10T00:16:24.503Z,7.51
2023-01-10T00:19:28.222Z,7.49
2023-01-10T00:22:32.180Z,7.36
2023-01-10T00:25:35.942Z,7.08
2023-01-10T00:28:39.846Z,7.38
2023-01-10T00:31:43.955Z,7.55
2023-01-10T00:34:47.962Z,7.78
2023-01-10T00:37:51.872Z,7.93
2023-01-10T00:44:17.581Z,7.76
2023-01-10T00:47:21.715Z,7.84
2023-01-10T00:50:25.703Z,7.55
2023-01-10T00:53:29.686Z,7.50
2023-01-10T00:56:33.578Z,7.84
2023-01-10T00:59:37.530Z,7.96
2023-01-10T01:02:41.689Z,7.75
2023-01-10T01:05:45.873Z,7.62
2023-01-10T01:08:49.554Z,7.85
2023-01-10T01:11:53.591Z,7.83
2023-01-10T01:14:57.967Z,7.94
2023-01-10T01:18:02.076Z,7.95
2023-01-10T01:21:05.900Z,7.90
2023-01-10T01:24:10.060Z,7.86
2023-01-10T01:27:13.819Z,7.58
2023-01-10T01:30:17.911Z,7.67
2023-01-10T01:33:21.952Z,7.20
2023-01-10T01:36:25.893Z,7.22
2023-01-10T01:39:29.813Z,6.97
2023-01-10T01:42:33.980Z,7.14
2023-01-10T01:45:38.031Z,7.11
2023-01-10T01:48:42.069Z,7.02
2023-01-10T01:51:45.962Z,6.86
2023-01-10T01:54:50.035Z,6.66
2023-01-10T01:57:54.308Z,6.99
2023-01-10T02:00:58.024Z,6.97
2023-01-10T02:04:01.939Z,6.59
2023-01-10T02:07:05.846Z,6.83
2023-01-10T02:10:09.758Z,6.70
2023-01-10T02:13:13.825Z,6.60
2023-01-10T02:16:18.019Z,7.01
2023-01-10T02:19:21.788Z,6.76
2023-01-10T02:22:25.601Z,7.05
2023-01-10T02:25:29.531Z,7.06
2023-01-10T02:28:33.390Z,7.37
2023-01-10T02:31:37.174Z,7.52
2023-01-10T02:34:41.253Z,7.18
2023-01-10T02:37:45.120Z,7.28
2023-01-10T02:40:49.250Z,7.13
2023-01-10T02:43:53.184Z,7.05
2023-01-10T02:46:57.218Z,7.11
2023-01-10T02:50:01.074Z,7.23
2023-01-10T02:53:05.264Z,7.02
2023-01-10T02:56:09.149Z,7.22
2023-01-10T02:59:13.215Z,7.24
2023-01-10T03:02:17.429Z,6.29
2023-01-10T03:05:21.951Z,6.11
2023-01-10T03:08:26.075Z,6.61
2023-01-10T03:11:29.864Z,6.79
2023-01-10T03:14:33.674Z,6.90
2023-01-10T03:17:37.619Z,6.72
2023-01-10T03:20:41.650Z,6.81
2023-01-10T03:23:45.561Z,6.87
2023-01-10T03:26:49.625Z,6.77
2023-01-10T03:29:53.534Z,6.95
2023-01-10T03:32:57.528Z,7.14
2023-01-10T03:36:02.029Z,6.88
2023-01-10T03:39:05.859Z,6.77
2023-01-10T03:42:09.628Z,7.11
2023-01-10T03:45:13.557Z,7.19
2023-01-10T03:48:17.638Z,6.81
2023-01-10T03:51:21.619Z,6.54
2023-01-10T03:54:25.462Z,6.75
2023-01-10T03:57:29.499Z,7.12
2023-01-10T04:00:33.728Z,7.13
2023-01-10T04:03:37.559Z,7.18
2023-01-10T04:06:41.407Z,7.18
2023-01-10T04:09:45.453Z,7.22
2023-01-10T04:12:49.402Z,6.71
2023-01-10T04:15:53.445Z,6.64
2023-01-10T04:18:57.339Z,6.88
2023-01-10T04:22:01.175Z,7.02
2023-01-10T04:25:05.036Z,6.80
2023-01-10T04:28:09.080Z,6.75
2023-01-10T04:31:13.226Z,6.87
2023-01-10T04:34:16.994Z,6.98
2023-01-10T04:37:20.969Z,7.11
2023-01-10T04:40:24.958Z,7.10
2023-01-10T04:43:29.062Z,7.08
2023-01-10T04:46:33.020Z,6.79
2023-01-10T04:49:38.928Z,6.97
2023-01-10T04:52:42.693Z,6.83
2023-01-10T04:55:46.699Z,6.82
2023-01-10T04:58:53.057Z,6.90
2023-01-10T05:01:57.777Z,7.02
2023-01-10T05:05:01.537Z,6.94
2023-01-10T05:08:05.248Z,6.73
2023-01-10T05:11:09.363Z,6.88
2023-01-10T05:14:13.506Z,7.09
2023-01-10T05:17:17.461Z,6.96
2023-01-10T05:20:21.312Z,6.59
2023-01-10T05:23:25.394Z,6.08
2023-01-10T05:26:29.477Z,6.60
2023-01-10T05:29:33.794Z,6.22
2023-01-10T05:32:37.511Z,6.42
2023-01-10T05:35:41.389Z,6.54
2023-01-10T05:38:45.533Z,6.54
2023-01-10T05:41:49.607Z,6.33
2023-01-10T05:44:53.721Z,6.31
2023-01-10T05:47:57.672Z,6.35
2023-01-10T05:51:01.750Z,6.55
2023-01-10T05:54:05.774Z,6.44
2023-01-10T05:57:09.880Z,6.37
2023-01-10T06:00:13.800Z,6.28
2023-01-10T06:03:17.819Z,6.39
2023-01-10T06:06:21.784Z,6.44
2023-01-10T06:09:25.702Z,6.47
2023-01-10T06:12:29.815Z,6.36
2023-01-10T06:15:33.838Z,6.25
2023-01-10T06:18:39.118Z,6.26
2023-01-10T06:21:43.039Z,6.32
2023-01-10T06:24:47.118Z,6.38
2023-01-10T06:27:50.994Z,6.19
2023-01-10T06:30:54.976Z,6.50
2023-01-10T06:33:59.114Z,6.59
2023-01-10T06:37:03.097Z,6.83
2023-01-10T06:40:07.007Z,6.89
2023-01-10T06:43:10.903Z,6.89
2023-01-10T06:46:14.844Z,7.04
2023-01-10T06:49:18.905Z,7.02
2023-01-10T06:52:23.135Z,7.03
2023-01-10T06:55:27.083Z,7.05
2023-01-10T06:58:30.983Z,7.04
2023-01-10T07:01:35.240Z,7.15
2023-01-10T07:04:39.657Z,7.01
2023-01-10T07:07:43.709Z,7.15
2023-01-10T07:10:47.969Z,6.89
2023-01-10T07:13:52.057Z,7.14
2023-01-10T07:16:56.379Z,7.39
2023-01-10T07:20:00.750Z,7.32
2023-01-10T07:23:04.738Z,7.26
2023-01-10T07:26:08.781Z,7.58
2023-01-10T07:29:12.860Z,7.06
2023-01-10T07:32:17.134Z,7.26
2023-01-10T07:35:21.391Z,7.05
2023-01-10T07:38:25.330Z,7.09
2023-01-10T07:41:29.167Z,7.21
2023-01-10T07:44:33.438Z,7.30
2023-01-10T07:47:37.961Z,7.22
2023-01-10T07:50:42.195Z,7.39
2023-01-10T07:53:46.181Z,7.37
2023-01-10T07:56:50.209Z,7.41
2023-01-10T07:59:53.877Z,7.24
2023-01-10T08:02:58.324Z,7.36
2023-01-10T08:06:02.330Z,7.64
2023-01-10T08:09:06.154Z,7.85
2023-01-10T08:12:10.291Z,7.84
2023-01-10T08:15:14.510Z,7.98
2023-01-10T08:18:18.291Z,7.82
2023-01-10T08:21:22.178Z,7.50
2023-01-10T08:24:26.121Z,7.27
2023-01-10T08:27:30.225Z,7.30
2023-01-10T08:30:35.159Z,7.35
2023-01-10T08:33:39.068Z,7.59
2023-01-10T08:36:42.788Z,7.64
2023-01-10T08:39:46.971Z,7.46
2023-01-10T08:42:51.143Z,7.91
2023-01-10T08:45:55.037Z,8.01
2023-01-10T08:48:58.962Z,8.08
2023-01-10T08:52:03.143Z,7.95
2023-01-10T08:55:07.276Z,7.80
2023-01-10T08:58:11.854Z,7.51
2023-01-10T09:01:15.765Z,7.56
2023-01-10T09:04:19.558Z,7.63
2023-01-10T09:07:23.594Z,7.52
2023-01-10T09:10:27.894Z,7.18
2023-01-10T09:13:32.174Z,7.31
2023-01-10T09:16:36.254Z,7.12
2023-01-10T09:19:40.226Z,7.23
2023-01-10T09:22:44.455Z,7.59
2023-01-10T09:25:48.827Z,7.64
2023-01-10T09:28:53.017Z,7.68
2023-01-10T09:31:57.223Z,7.56
2023-01-10T09:35:01.351Z,7.78
2023-01-10T09:38:05.156Z,8.01
2023-01-10T09:41:09.193Z,8.15
2023-01-10T09:44:12.952Z,8.17
2023-01-10T09:47:22.478Z,8.15
2023-01-10T09:50:27.155Z,7.76
2023-01-10T09:53:30.984Z,8.07
2023-01-10T09:56:34.899Z,8.37
2023-01-10T09:59:39.108Z,8.42
2023-01-10T10:02:43.431Z,8.35
2023-01-10T10:05:47.543Z,8.67
2023-01-10T10:08:51.460Z,8.45
2023-01-10T10:11:55.463Z,8.60
2023-01-10T10:14:59.729Z,8.67
2023-01-10T10:18:04.069Z,8.66
2023-01-10T10:21:08.189Z,8.81
2023-01-10T10:24:12.259Z,8.88
2023-01-10T10:27:16.377Z,8.98
2023-01-10T10:30:20.056Z,9.09
2023-01-10T10:33:24.197Z,9.16
2023-01-10T10:36:27.838Z,9.29
2023-01-10T10:39:31.662Z,9.17
2023-01-10T10:42:35.879Z,9.20
2023-01-10T10:45:40.131Z,9.17
2023-01-10T10:48:43.823Z,9.37
2023-01-10T10:51:47.899Z,9.28
2023-01-10T10:54:52.091Z,9.40
2023-01-10T10:58:00.380Z,9.22
2023-01-10T11:01:05.091Z,9.44
2023-01-10T11:04:09.167Z,9.53
2023-01-10T11:07:13.098Z,9.44
2023-01-10T11:10:17.023Z,9.28
2023-01-10T11:13:21.291Z,9.56
2023-01-10T11:16:25.621Z,9.63
2023-01-10T11:19:29.709Z,9.21
2023-01-10T11:22:33.709Z,9.46
2023-01-10T11:25:37.893Z,9.67
2023-01-10T11:28:42.334Z,9.77
2023-01-10T11:31:46.149Z,9.68
2023-01-10T11:34:50.046Z,9.66
2023-01-10T11:37:53.820Z,9.77
2023-01-10T11:40:58.211Z,9.79
2023-01-10T11:44:02.394Z,9.77
2023-01-10T11:47:06.562Z,9.86
2023-01-10T11:50:10.317Z,9.85
2023-01-10T11:53:14.409Z,9.66
2023-01-10T11:56:18.256Z,9.48
2023-01-10T11:59:22.214Z,9.51
2023-01-10T12:02:26.084Z,9.81
2023-01-10T12:05:30.068Z,9.88
2023-01-10T12:08:33.889Z,10.00
2023-01-10T12:11:38.372Z,10.01
2023-01-10T12:14:42.224Z,10.00
2023-01-10T12:17:46.240Z,9.95
2023-01-10T12:20:50.130Z,10.11
2023-01-10T12:23:53.954Z,10.24
2023-01-10T12:26:58.137Z,10.13
2023-01-10T12:30:01.964Z,10.27
2023-01-10T12:33:05.961Z,10.06
2023-01-10T12:36:10.139Z,10.27
2023-01-10T12:39:14.440Z,10.28
2023-01-10T12:42:21.883Z,10.38
2023-01-10T12:45:27.922Z,10.53
2023-01-10T12:48:32.100Z,10.41
2023-01-10T12:51:35.834Z,10.21
2023-01-10T12:54:39.723Z,10.55
2023-01-10T12:57:43.675Z,10.69
2023-01-10T13:00:48.837Z,10.52
2023-01-10T13:03:53.150Z,10.55
2023-01-10T13:06:56.842Z,10.72
2023-01-10T13:10:00.722Z,10.86
2023-01-10T13:13:04.878Z,10.93
2023-01-10T13:16:08.945Z,10.77
2023-01-10T13:19:12.924Z,10.94
2023-01-10T13:22:17.457Z,10.94
2023-01-10T13:25:21.431Z,10.93
2023-01-10T13:28:25.085Z,10.85
2023-01-10T13:31:29.135Z,10.68
2023-01-10T13:34:33.824Z,10.80
2023-01-10T13:37:39.232Z,10.59
2023-01-10T13:40:43.570Z,10.73
2023-01-10T13:43:50.001Z,10.69
2023-01-10T13:46:54.220Z,10.72
2023-01-10T13:49:57.957Z,11.12
2023-01-10T13:53:02.025Z,11.32
2023-01-10T13:56:06.209Z,11.43
2023-01-10T13:59:10.260Z,11.67
2023-01-10T14:02:14.246Z,11.56
2023-01-10T14:05:18.652Z,10.86
2023-01-10T14:08:22.620Z,12.26
2023-01-10T14:11:26.884Z,11.93
2023-01-10T14:14:31.239Z,11.68
2023-01-10T14:17:35.058Z,11.36
2023-01-10T14:20:39.331Z,11.20
2023-01-10T14:23:43.325Z,10.81
2023-01-10T14:26:47.123Z,10.79
2023-01-10T14:29:51.213Z,10.77
2023-01-10T14:32:57.706Z,10.50
2023-01-10T14:36:01.873Z,10.01
2023-01-10T14:39:05.870Z,9.59
2023-01-10T14:42:10.001Z,9.91
2023-01-10T14:45:13.975Z,9.66
2023-01-10T14:48:17.808Z,9.83
2023-01-10T14:51:21.606Z,9.64
2023-01-10T14:54:25.655Z,9.61
2023-01-10T14:57:29.653Z,9.89
2023-01-10T15:00:33.522Z,9.90
2023-01-10T15:03:37.208Z,9.76
2023-01-10T15:06:42.550Z,9.76
2023-01-10T15:09:46.591Z,9.87
2023-01-10T15:12:50.470Z,9.78
2023-01-10T15:15:54.237Z,9.76
2023-01-10T15:18:58.039Z,9.78
2023-01-10T15:22:01.969Z,9.77
2023-01-10T15:25:06.121Z,9.87
2023-01-10T15:28:10.039Z,9.88
2023-01-10T15:31:13.957Z,9.91
2023-01-10T15:34:17.818Z,9.93
2023-01-10T15:37:21.688Z,9.84
2023-01-10T15:40:25.528Z,9.87
2023-01-10T15:43:29.343Z,9.86
2023-01-10T15:46:33.204Z,9.89
2023-01-10T15:49:37.308Z,9.81
2023-01-10T15:52:41.322Z,9.73
2023-01-10T15:55:45.086Z,9.81
2023-01-10T15:58:48.769Z,9.66
2023-01-10T16:01:52.728Z,9.73
2023-01-10T16:04:57.365Z,9.64
2023-01-10T16:08:01.287Z,9.72
2023-01-10T16:11:04.945Z,9.66
2023-01-10T16:14:08.746Z,9.66
2023-01-10T16:17:12.654Z,9.49
2023-01-10T16:20:16.461Z,9.68
2023-01-10T16:23:20.485Z,9.77
2023-01-10T16:26:24.257Z,9.76
2023-01-10T16:29:28.065Z,9.80
2023-01-10T16:32:32.577Z,9.84
2023-01-10T16:35:36.534Z,9.82
2023-01-10T16:38:40.802Z,9.81
2023-01-10T16:41:47.234Z,9.64
2023-01-10T16:44:51.210Z,9.69
2023-01-10T16:47:55.185Z,9.77
2023-01-10T16:51:00.238Z,9.75
2023-01-10T16:57:25.950Z,9.70
2023-01-10T17:00:30.020Z,9.84
2023-01-10T17:03:33.832Z,9.85
2023-01-10T17:06:37.988Z,9.79
2023-01-10T17:09:41.655Z,9.85
2023-01-10T17:12:45.448Z,9.73
2023-01-10T17:15:49.587Z,9.81
2023-01-10T17:18:54.941Z,9.92
2023-01-10T17:21:59.364Z,9.92
2023-01-10T17:25:04.039Z,9.95
2023-01-10T17:28:07.977Z,10.04
2023-01-10T17:31:12.550Z,10.06
2023-01-10T17:34:16.239Z,10.15
2023-01-10T17:37:20.145Z,10.18
2023-01-10T17:40:24.219Z,10.23
2023-01-10T17:43:28.217Z,10.15
2023-01-10T17:46:32.432Z,10.15
2023-01-10T17:49:38.428Z,10.20
2023-01-10T17:52:42.750Z,10.26
2023-01-10T17:55:49.669Z,10.26
2023-01-10T17:58:53.762Z,10.00
2023-01-10T18:01:57.798Z,9.93
2023-01-10T18:05:01.951Z,10.06
2023-01-10T18:08:05.921Z,10.12
2023-01-10T18:11:09.690Z,9.90
2023-01-10T18:14:15.508Z,9.83
2023-01-10T18:17:19.519Z,9.96
2023-01-10T18:20:24.186Z,10.15
2023-01-10T18:23:28.098Z,10.20
2023-01-10T18:26:33.899Z,10.19
2023-01-10T18:29:37.759Z,10.06
2023-01-10T18:32:41.641Z,10.15
2023-01-10T18:35:47.396Z,10.10
2023-01-10T18:38:51.917Z,10.25
2023-01-10T18:41:55.914Z,10.25
2023-01-10T18:45:00.066Z,10.20
2023-01-10T18:48:04.006Z,10.17
2023-01-10T18:51:08.121Z,10.04
2023-01-10T18:54:12.038Z,10.13
2023-01-10T18:57:15.969Z,10.07
2023-01-10T19:00:20.030Z,10.03
2023-01-10T19:03:24.089Z,10.18
2023-01-10T19:06:28.127Z,10.18
2023-01-10T19:09:32.093Z,10.13
2023-01-10T19:12:35.831Z,10.09
2023-01-10T19:15:39.731Z,10.14
2023-01-10T19:18:43.775Z,10.02
2023-01-10T19:21:47.867Z,10.16
2023-01-10T19:24:51.927Z,10.02
2023-01-10T19:27:56.206Z,10.13
2023-01-10T19:31:04.556Z,10.11
2023-01-10T19:34:09.063Z,9.85
2023-01-10T19:37:13.116Z,9.88
2023-01-10T19:40:17.443Z,10.04
2023-01-10T19:43:21.414Z,10.18
2023-01-10T19:46:25.272Z,10.10
2023-01-10T19:49:29.117Z,10.04
2023-01-10T19:52:33.409Z,10.09
2023-01-10T19:55:37.051Z,10.07
2023-01-10T19:58:40.884Z,10.13
2023-01-10T20:01:44.786Z,10.11
2023-01-10T20:04:48.870Z,10.17
2023-01-10T20:07:52.873Z,10.14
2023-01-10T20:10:57.272Z,10.16
2023-01-10T20:14:01.130Z,10.16
2023-01-10T20:17:05.137Z,10.12
2023-01-10T20:20:09.388Z,10.19
2023-01-10T20:23:13.477Z,10.02
2023-01-10T20:26:17.381Z,10.20
2023-01-10T20:29:21.504Z,10.15
2023-01-10T20:32:25.690Z,10.01
2023-01-10T20:35:30.863Z,9.92
2023-01-10T20:38:35.225Z,9.80
2023-01-10T20:41:39.194Z,9.49
2023-01-10T20:44:43.172Z,9.83
2023-01-10T20:47:47.192Z,9.75
2023-01-10T20:50:51.490Z,9.60
2023-01-10T20:53:55.465Z,9.54
2023-01-10T20:56:59.353Z,9.68
2023-01-10T21:00:03.579Z,9.88
2023-01-10T21:03:07.932Z,10.02
2023-01-10T21:06:11.646Z,9.73
2023-01-10T21:09:15.716Z,9.80
2023-01-10T21:12:23.471Z,9.99
2023-01-10T21:15:28.232Z,9.81
2023-01-10T21:18:32.085Z,9.57
2023-01-10T21:21:36.054Z,9.82
2023-01-10T21:24:40.296Z,9.89
2023-01-10T21:27:44.131Z,9.73
2023-01-10T21:30:48.060Z,9.98
2023-01-10T21:33:52.084Z,9.10
2023-01-10T21:36:56.341Z,9.59
2023-01-10T21:40:00.468Z,9.77
2023-01-10T21:43:04.407Z,9.08
2023-01-10T21:46:08.524Z,9.04
2023-01-10T21:49:12.895Z,9.29
2023-01-10T21:52:16.918Z,9.63
2023-01-10T21:55:20.900Z,9.24
2023-01-10T21:58:24.924Z,9.41
2023-01-10T22:01:28.914Z,9.62
2023-01-10T22:04:33.469Z,9.55
2023-01-10T22:07:37.364Z,9.48
2023-01-10T22:10:41.370Z,9.46
2023-01-10T22:13:45.613Z,9.58
2023-01-10T22:16:49.603Z,9.65
2023-01-10T22:19:53.844Z,9.74
2023-01-10T22:23:00.742Z,9.78
2023-01-10T22:26:04.560Z,9.16
2023-01-10T22:29:08.756Z,9.00
2023-01-10T22:32:13.432Z,9.18
2023-01-10T22:35:17.300Z,8.89
2023-01-10T22:38:21.594Z,9.16
2023-01-10T22:41:25.372Z,9.11
2023-01-10T22:44:29.261Z,9.14
2023-01-10T22:47:34.318Z,9.11
2023-01-10T22:50:38.553Z,9.23
2023-01-10T22:53:42.569Z,9.54
2023-01-10T22:56:46.575Z,9.54
2023-01-10T23:00:03.291Z,9.75
2023-01-10T23:03:07.107Z,9.79
2023-01-10T23:06:10.978Z,9.61
2023-01-10T23:09:15.189Z,9.67
2023-01-10T23:12:19.272Z,9.67
2023-01-10T23:15:23.288Z,9.25
2023-01-10T23:18:27.389Z,9.45
2023-01-10T23:21:31.453Z,9.49
2023-01-10T23:24:35.616Z,9.45
2023-01-10T23:27:39.498Z,9.42
2023-01-10T23:30:43.679Z,9.38
2023-01-10T23:33:47.592Z,9.50
2023-01-10T23:36:53.576Z,9.55
2023-01-10T23:39:57.494Z,9.61
2023-01-10T23:43:01.703Z,9.49
2023-01-10T23:46:06.059Z,9.50
2023-01-10T23:49:10.023Z,9.47
2023-01-10T23:52:13.957Z,9.60
2023-01-10T23:55:18.046Z,9.68
2023-01-10T23:58:21.937Z,9.71
